sensor_id;sensor_type;location;lat;lon;timestamp;temperature;humidity
418;DHT22;49;48.530;9.200;2022-08-11T00:01:14;21.30;23.00
418;DHT22;49;48.530;9.200;2022-08-11T00:03:44;21.30;23.20
418;DHT22;49;48.530;9.200;2022-08-11T00:06:13;21.20;23.60
418;DHT22;49;48.530;9.200;2022-08-11T00:08:44;21.60;23.10
418;DHT22;49;48.530;9.200;2022-08-11T00:11:17;22.10;22.80
418;DHT22;49;48.530;9.200;2022-08-11T00:13:49;22.60;21.60
418;DHT22;49;48.530;9.200;2022-08-11T00:16:18;22.60;21.20
418;DHT22;49;48.530;9.200;2022-08-11T00:18:48;22.00;22.10
418;DHT22;49;48.530;9.200;2022-08-11T00:21:15;21.50;22.80
418;DHT22;49;48.530;9.200;2022-08-11T00:23:46;21.50;23.20
418;DHT22;49;48.530;9.200;2022-08-11T00:26:14;21.60;23.00
418;DHT22;49;48.530;9.200;2022-08-11T00:28:45;21.50;23.10
418;DHT22;49;48.530;9.200;2022-08-11T00:31:23;21.70;23.10
418;DHT22;49;48.530;9.200;2022-08-11T00:33:52;21.60;22.80
418;DHT22;49;48.530;9.200;2022-08-11T00:36:25;21.70;22.80
418;DHT22;49;48.530;9.200;2022-08-11T00:38:54;21.60;24.10
418;DHT22;49;48.530;9.200;2022-08-11T00:41:33;21.60;23.10
418;DHT22;49;48.530;9.200;2022-08-11T00:44:39;22.00;24.70
418;DHT22;49;48.530;9.200;2022-08-11T00:47:18;22.50;22.70
418;DHT22;49;48.530;9.200;2022-08-11T00:50:04;22.50;21.40
418;DHT22;49;48.530;9.200;2022-08-11T00:52:47;22.20;22.00
418;DHT22;49;48.530;9.200;2022-08-11T00:55:38;22.20;22.40
418;DHT22;49;48.530;9.200;2022-08-11T00:58:38;22.10;22.50
418;DHT22;49;48.530;9.200;2022-08-11T01:01:20;21.90;22.80
418;DHT22;49;48.530;9.200;2022-08-11T01:04:19;21.70;22.60
418;DHT22;49;48.530;9.200;2022-08-11T01:07:24;21.50;23.00
418;DHT22;49;48.530;9.200;2022-08-11T01:10:13;21.10;24.80
418;DHT22;49;48.530;9.200;2022-08-11T01:12:59;21.30;24.10
418;DHT22;49;48.530;9.200;2022-08-11T01:22:32;22.30;22.10
418;DHT22;49;48.530;9.200;2022-08-11T01:29:10;22.40;22.30
418;DHT22;49;48.530;9.200;2022-08-11T01:32:00;22.30;23.60
418;DHT22;49;48.530;9.200;2022-08-11T01:41:25;21.90;22.60
418;DHT22;49;48.530;9.200;2022-08-11T01:44:41;21.80;23.20
418;DHT22;49;48.530;9.200;2022-08-11T01:47:24;22.30;23.00
418;DHT22;49;48.530;9.200;2022-08-11T01:50:15;22.40;23.10
418;DHT22;49;48.530;9.200;2022-08-11T01:52:57;22.60;23.40
418;DHT22;49;48.530;9.200;2022-08-11T01:55:32;23.00;23.30
418;DHT22;49;48.530;9.200;2022-08-11T01:58:08;23.20;23.40
418;DHT22;49;48.530;9.200;2022-08-11T02:00:49;23.20;22.00
418;DHT22;49;48.530;9.200;2022-08-11T02:03:25;23.30;23.00
418;DHT22;49;48.530;9.200;2022-08-11T02:06:09;23.60;22.60
418;DHT22;49;48.530;9.200;2022-08-11T02:09:01;23.80;22.60
418;DHT22;49;48.530;9.200;2022-08-11T02:11:31;23.90;22.20
418;DHT22;49;48.530;9.200;2022-08-11T02:14:13;23.90;23.00
418;DHT22;49;48.530;9.200;2022-08-11T02:16:55;23.90;22.20
418;DHT22;49;48.530;9.200;2022-08-11T02:19:37;23.90;21.80
418;DHT22;49;48.530;9.200;2022-08-11T02:22:31;24.00;20.80
418;DHT22;49;48.530;9.200;2022-08-11T02:25:23;23.40;22.70
418;DHT22;49;48.530;9.200;2022-08-11T02:28:01;23.60;22.30
418;DHT22;49;48.530;9.200;2022-08-11T02:30:34;23.20;22.20
418;DHT22;49;48.530;9.200;2022-08-11T02:33:12;23.10;22.50
418;DHT22;49;48.530;9.200;2022-08-11T02:36:02;23.30;23.00
418;DHT22;49;48.530;9.200;2022-08-11T02:38:42;23.30;23.20
418;DHT22;49;48.530;9.200;2022-08-11T02:41:15;23.40;22.60
418;DHT22;49;48.530;9.200;2022-08-11T02:44:23;23.50;23.20
418;DHT22;49;48.530;9.200;2022-08-11T02:47:05;23.60;22.00
418;DHT22;49;48.530;9.200;2022-08-11T02:52:30;23.60;21.90
418;DHT22;49;48.530;9.200;2022-08-11T02:55:17;23.10;22.50
418;DHT22;49;48.530;9.200;2022-08-11T02:57:50;22.70;23.60
418;DHT22;49;48.530;9.200;2022-08-11T03:00:19;23.00;24.30
418;DHT22;49;48.530;9.200;2022-08-11T03:02:58;23.40;23.90
418;DHT22;49;48.530;9.200;2022-08-11T03:05:45;23.30;23.00
418;DHT22;49;48.530;9.200;2022-08-11T03:11:38;23.40;23.00
418;DHT22;49;48.530;9.200;2022-08-11T03:14:28;23.50;23.30
418;DHT22;49;48.530;9.200;2022-08-11T03:17:31;23.40;23.20
418;DHT22;49;48.530;9.200;2022-08-11T03:20:22;23.20;23.10
418;DHT22;49;48.530;9.200;2022-08-11T03:22:58;23.50;23.90
418;DHT22;49;48.530;9.200;2022-08-11T03:25:31;23.50;23.40
418;DHT22;49;48.530;9.200;2022-08-11T03:28:13;23.40;23.30
418;DHT22;49;48.530;9.200;2022-08-11T03:30:53;23.10;23.80
418;DHT22;49;48.530;9.200;2022-08-11T03:33:28;23.00;23.90
418;DHT22;49;48.530;9.200;2022-08-11T03:36:21;22.30;23.90
418;DHT22;49;48.530;9.200;2022-08-11T03:39:07;22.50;24.80
418;DHT22;49;48.530;9.200;2022-08-11T03:41:48;22.60;24.70
418;DHT22;49;48.530;9.200;2022-08-11T03:44:35;22.70;24.00
418;DHT22;49;48.530;9.200;2022-08-11T03:47:40;22.70;23.40
418;DHT22;49;48.530;9.200;2022-08-11T03:50:26;22.80;24.40
418;DHT22;49;48.530;9.200;2022-08-11T03:53:05;22.90;24.10
418;DHT22;49;48.530;9.200;2022-08-11T03:58:49;22.60;24.40
418;DHT22;49;48.530;9.200;2022-08-11T04:01:56;22.70;25.00
418;DHT22;49;48.530;9.200;2022-08-11T04:04:54;22.90;23.90
418;DHT22;49;48.530;9.200;2022-08-11T04:11:05;22.40;23.50
418;DHT22;49;48.530;9.200;2022-08-11T04:14:19;22.10;25.50
418;DHT22;49;48.530;9.200;2022-08-11T04:17:47;22.30;25.60
418;DHT22;49;48.530;9.200;2022-08-11T04:20:35;22.40;23.80
418;DHT22;49;48.530;9.200;2022-08-11T04:23:24;22.50;24.30
418;DHT22;49;48.530;9.200;2022-08-11T04:26:20;22.70;25.00
418;DHT22;49;48.530;9.200;2022-08-11T04:29:13;22.60;25.40
418;DHT22;49;48.530;9.200;2022-08-11T04:31:56;22.70;24.70
418;DHT22;49;48.530;9.200;2022-08-11T04:34:56;22.80;24.40
418;DHT22;49;48.530;9.200;2022-08-11T04:38:02;22.90;24.40
418;DHT22;49;48.530;9.200;2022-08-11T04:40:53;22.90;25.00
418;DHT22;49;48.530;9.200;2022-08-11T04:44:01;23.10;24.40
418;DHT22;49;48.530;9.200;2022-08-11T04:46:53;23.30;23.80
418;DHT22;49;48.530;9.200;2022-08-11T04:49:57;23.30;24.30
418;DHT22;49;48.530;9.200;2022-08-11T04:53:01;23.50;24.30
418;DHT22;49;48.530;9.200;2022-08-11T04:56:09;23.50;23.80
418;DHT22;49;48.530;9.200;2022-08-11T04:59:18;23.50;24.30
418;DHT22;49;48.530;9.200;2022-08-11T05:05:20;23.40;22.70
418;DHT22;49;48.530;9.200;2022-08-11T05:11:11;23.30;22.80
418;DHT22;49;48.530;9.200;2022-08-11T05:13:47;23.30;23.70
418;DHT22;49;48.530;9.200;2022-08-11T05:16:34;23.30;24.20
418;DHT22;49;48.530;9.200;2022-08-11T05:19:24;23.30;23.80
418;DHT22;49;48.530;9.200;2022-08-11T05:22:12;23.10;23.80
418;DHT22;49;48.530;9.200;2022-08-11T05:25:03;23.00;24.00
418;DHT22;49;48.530;9.200;2022-08-11T05:27:52;22.80;23.80
418;DHT22;49;48.530;9.200;2022-08-11T05:30:41;22.90;24.20
418;DHT22;49;48.530;9.200;2022-08-11T05:33:32;23.20;24.50
418;DHT22;49;48.530;9.200;2022-08-11T05:36:24;23.50;24.00
418;DHT22;49;48.530;9.200;2022-08-11T05:38:57;24.60;22.30
418;DHT22;49;48.530;9.200;2022-08-11T05:41:43;25.70;21.50
418;DHT22;49;48.530;9.200;2022-08-11T05:44:28;27.70;19.40
418;DHT22;49;48.530;9.200;2022-08-11T05:47:22;29.20;18.10
418;DHT22;49;48.530;9.200;2022-08-11T05:50:09;30.40;15.90
418;DHT22;49;48.530;9.200;2022-08-11T05:52:54;31.50;14.40
418;DHT22;49;48.530;9.200;2022-08-11T05:55:42;32.50;13.60
418;DHT22;49;48.530;9.200;2022-08-11T05:58:32;33.00;12.40
418;DHT22;49;48.530;9.200;2022-08-11T06:00:59;33.90;11.30
418;DHT22;49;48.530;9.200;2022-08-11T06:03:28;34.20;10.30
418;DHT22;49;48.530;9.200;2022-08-11T06:05:57;34.80;9.90
418;DHT22;49;48.530;9.200;2022-08-11T06:08:29;35.00;9.10
418;DHT22;49;48.530;9.200;2022-08-11T06:11:03;35.00;8.60
418;DHT22;49;48.530;9.200;2022-08-11T06:13:31;35.40;8.20
418;DHT22;49;48.530;9.200;2022-08-11T06:16:03;35.40;8.20
418;DHT22;49;48.530;9.200;2022-08-11T06:18:31;35.50;8.20
418;DHT22;49;48.530;9.200;2022-08-11T06:20:58;34.90;8.60
418;DHT22;49;48.530;9.200;2022-08-11T06:23:31;35.20;8.10
418;DHT22;49;48.530;9.200;2022-08-11T06:26:07;34.90;7.90
418;DHT22;49;48.530;9.200;2022-08-11T06:28:42;35.20;8.10
418;DHT22;49;48.530;9.200;2022-08-11T06:31:14;35.00;8.50
418;DHT22;49;48.530;9.200;2022-08-11T06:33:53;35.50;8.30
418;DHT22;49;48.530;9.200;2022-08-11T06:36:31;35.60;7.90
418;DHT22;49;48.530;9.200;2022-08-11T06:39:12;35.30;8.10
418;DHT22;49;48.530;9.200;2022-08-11T06:41:48;35.30;7.70
418;DHT22;49;48.530;9.200;2022-08-11T06:44:24;34.70;7.80
418;DHT22;49;48.530;9.200;2022-08-11T06:46:53;34.00;8.60
418;DHT22;49;48.530;9.200;2022-08-11T06:49:33;34.90;8.40
418;DHT22;49;48.530;9.200;2022-08-11T06:52:17;35.20;8.10
418;DHT22;49;48.530;9.200;2022-08-11T06:54:50;35.00;7.90
418;DHT22;49;48.530;9.200;2022-08-11T06:57:31;35.40;8.20
418;DHT22;49;48.530;9.200;2022-08-11T07:00:17;36.40;7.60
418;DHT22;49;48.530;9.200;2022-08-11T07:03:03;35.30;8.10
418;DHT22;49;48.530;9.200;2022-08-11T07:05:43;35.20;8.10
418;DHT22;49;48.530;9.200;2022-08-11T07:08:40;34.80;7.80
418;DHT22;49;48.530;9.200;2022-08-11T07:11:53;33.40;9.40
418;DHT22;49;48.530;9.200;2022-08-11T07:14:48;33.20;9.60
418;DHT22;49;48.530;9.200;2022-08-11T07:17:36;33.20;9.90
418;DHT22;49;48.530;9.200;2022-08-11T07:20:05;33.20;9.40
418;DHT22;49;48.530;9.200;2022-08-11T07:22:55;33.60;10.10
418;DHT22;49;48.530;9.200;2022-08-11T07:25:42;35.10;8.40
418;DHT22;49;48.530;9.200;2022-08-11T07:28:28;35.20;8.10
418;DHT22;49;48.530;9.200;2022-08-11T07:31:17;36.20;7.50
418;DHT22;49;48.530;9.200;2022-08-11T07:33:49;35.30;8.10
418;DHT22;49;48.530;9.200;2022-08-11T07:36:18;35.30;8.10
418;DHT22;49;48.530;9.200;2022-08-11T07:38:48;35.40;8.20
418;DHT22;49;48.530;9.200;2022-08-11T07:41:19;36.60;7.40
418;DHT22;49;48.530;9.200;2022-08-11T07:43:50;36.90;7.10
418;DHT22;49;48.530;9.200;2022-08-11T07:46:22;35.80;7.80
418;DHT22;49;48.530;9.200;2022-08-11T07:49:08;35.20;8.10
418;DHT22;49;48.530;9.200;2022-08-11T07:51:53;35.70;8.30
418;DHT22;49;48.530;9.200;2022-08-11T07:54:39;36.20;8.10
418;DHT22;49;48.530;9.200;2022-08-11T07:57:08;35.40;8.20
418;DHT22;49;48.530;9.200;2022-08-11T07:59:53;35.60;8.30
418;DHT22;49;48.530;9.200;2022-08-11T08:02:42;34.80;8.40
418;DHT22;49;48.530;9.200;2022-08-11T08:05:27;35.00;8.40
418;DHT22;49;48.530;9.200;2022-08-11T08:08:14;34.30;8.60
418;DHT22;49;48.530;9.200;2022-08-11T08:10:59;32.70;10.70
418;DHT22;49;48.530;9.200;2022-08-11T08:13:45;32.20;11.10
418;DHT22;49;48.530;9.200;2022-08-11T08:16:30;33.70;9.90
418;DHT22;49;48.530;9.200;2022-08-11T08:19:19;33.30;9.80
418;DHT22;49;48.530;9.200;2022-08-11T08:21:47;32.40;11.10
418;DHT22;49;48.530;9.200;2022-08-11T08:24:14;31.40;11.80
418;DHT22;49;48.530;9.200;2022-08-11T08:26:42;32.20;11.00
418;DHT22;49;48.530;9.200;2022-08-11T08:29:26;30.70;12.60
418;DHT22;49;48.530;9.200;2022-08-11T08:32:11;31.10;12.10
418;DHT22;49;48.530;9.200;2022-08-11T08:34:42;31.50;12.00
418;DHT22;49;48.530;9.200;2022-08-11T08:37:13;33.00;10.10
418;DHT22;49;48.530;9.200;2022-08-11T08:39:44;32.60;10.10
418;DHT22;49;48.530;9.200;2022-08-11T08:42:18;33.10;10.00
418;DHT22;49;48.530;9.200;2022-08-11T08:44:54;32.50;10.70
418;DHT22;49;48.530;9.200;2022-08-11T08:47:26;31.40;10.90
418;DHT22;49;48.530;9.200;2022-08-11T08:50:01;30.60;12.40
418;DHT22;49;48.530;9.200;2022-08-11T08:52:41;31.30;11.90
418;DHT22;49;48.530;9.200;2022-08-11T08:55:14;31.70;11.40
418;DHT22;49;48.530;9.200;2022-08-11T08:57:44;31.80;10.50
418;DHT22;49;48.530;9.200;2022-08-11T09:00:14;31.20;9.90
418;DHT22;49;48.530;9.200;2022-08-11T09:02:43;31.40;10.50
418;DHT22;49;48.530;9.200;2022-08-11T09:05:16;31.60;9.90
418;DHT22;49;48.530;9.200;2022-08-11T09:07:44;30.50;11.00
418;DHT22;49;48.530;9.200;2022-08-11T09:10:14;29.30;11.90
418;DHT22;49;48.530;9.200;2022-08-11T09:12:44;28.90;13.10
418;DHT22;49;48.530;9.200;2022-08-11T09:15:12;29.60;11.50
418;DHT22;49;48.530;9.200;2022-08-11T09:17:45;30.30;12.40
418;DHT22;49;48.530;9.200;2022-08-11T09:20:17;29.50;11.80
418;DHT22;49;48.530;9.200;2022-08-11T09:22:47;29.60;12.90
418;DHT22;49;48.530;9.200;2022-08-11T09:25:33;29.70;11.60
418;DHT22;49;48.530;9.200;2022-08-11T09:28:20;29.30;11.90
418;DHT22;49;48.530;9.200;2022-08-11T09:30:50;29.00;12.20
418;DHT22;49;48.530;9.200;2022-08-11T09:33:21;29.10;12.00
418;DHT22;49;48.530;9.200;2022-08-11T09:35:51;28.60;12.50
418;DHT22;49;48.530;9.200;2022-08-11T09:38:19;29.00;11.70
418;DHT22;49;48.530;9.200;2022-08-11T09:41:08;29.30;11.00
418;DHT22;49;48.530;9.200;2022-08-11T09:43:43;29.80;10.40
418;DHT22;49;48.530;9.200;2022-08-11T09:46:29;30.00;9.70
418;DHT22;49;48.530;9.200;2022-08-11T09:48:59;30.20;9.10
418;DHT22;49;48.530;9.200;2022-08-11T09:51:30;30.00;9.40
418;DHT22;49;48.530;9.200;2022-08-11T09:53:59;30.30;9.90
418;DHT22;49;48.530;9.200;2022-08-11T09:56:32;30.80;9.90
418;DHT22;49;48.530;9.200;2022-08-11T09:59:17;30.50;9.50
418;DHT22;49;48.530;9.200;2022-08-11T10:01:48;30.60;9.40
418;DHT22;49;48.530;9.200;2022-08-11T10:04:18;30.80;8.90
418;DHT22;49;48.530;9.200;2022-08-11T10:06:52;30.80;8.20
418;DHT22;49;48.530;9.200;2022-08-11T10:09:39;30.10;8.90
418;DHT22;49;48.530;9.200;2022-08-11T10:12:09;29.40;9.40
418;DHT22;49;48.530;9.200;2022-08-11T10:14:41;29.30;9.50
418;DHT22;49;48.530;9.200;2022-08-11T10:17:30;29.40;10.00
418;DHT22;49;48.530;9.200;2022-08-11T10:19:58;29.80;9.80
418;DHT22;49;48.530;9.200;2022-08-11T10:22:29;30.30;9.00
418;DHT22;49;48.530;9.200;2022-08-11T10:25:16;30.10;8.70
418;DHT22;49;48.530;9.200;2022-08-11T10:28:03;30.00;9.30
418;DHT22;49;48.530;9.200;2022-08-11T10:30:30;30.10;9.00
418;DHT22;49;48.530;9.200;2022-08-11T10:33:16;30.20;9.00
418;DHT22;49;48.530;9.200;2022-08-11T10:36:03;30.20;9.00
418;DHT22;49;48.530;9.200;2022-08-11T10:38:34;30.30;8.80
418;DHT22;49;48.530;9.200;2022-08-11T10:41:03;30.80;8.50
418;DHT22;49;48.530;9.200;2022-08-11T10:43:48;30.60;8.70
418;DHT22;49;48.530;9.200;2022-08-11T10:46:19;29.90;8.80
418;DHT22;49;48.530;9.200;2022-08-11T10:49:04;29.50;8.90
418;DHT22;49;48.530;9.200;2022-08-11T10:51:34;29.70;9.20
418;DHT22;49;48.530;9.200;2022-08-11T10:54:22;30.00;8.80
418;DHT22;49;48.530;9.200;2022-08-11T10:57:07;29.70;8.90
418;DHT22;49;48.530;9.200;2022-08-11T10:59:52;29.50;9.10
418;DHT22;49;48.530;9.200;2022-08-11T11:02:20;29.10;9.20
418;DHT22;49;48.530;9.200;2022-08-11T11:04:57;29.50;9.70
418;DHT22;49;48.530;9.200;2022-08-11T11:07:34;29.80;9.70
418;DHT22;49;48.530;9.200;2022-08-11T11:10:08;29.90;8.80
418;DHT22;49;48.530;9.200;2022-08-11T11:12:40;30.30;8.60
418;DHT22;49;48.530;9.200;2022-08-11T11:15:28;30.20;8.10
418;DHT22;49;48.530;9.200;2022-08-11T11:18:18;29.60;10.00
418;DHT22;49;48.530;9.200;2022-08-11T11:20:52;29.50;8.50
418;DHT22;49;48.530;9.200;2022-08-11T11:23:24;29.40;8.70
418;DHT22;49;48.530;9.200;2022-08-11T11:26:30;29.30;8.70
418;DHT22;49;48.530;9.200;2022-08-11T11:32:10;28.70;9.40
418;DHT22;49;48.530;9.200;2022-08-11T11:37:47;28.30;10.70
418;DHT22;49;48.530;9.200;2022-08-11T11:40:17;29.40;9.00
418;DHT22;49;48.530;9.200;2022-08-11T11:42:48;29.80;8.40
418;DHT22;49;48.530;9.200;2022-08-11T11:45:17;29.70;8.60
418;DHT22;49;48.530;9.200;2022-08-11T11:47:48;30.20;8.20
418;DHT22;49;48.530;9.200;2022-08-11T11:50:22;30.80;7.30
418;DHT22;49;48.530;9.200;2022-08-11T11:52:53;30.80;6.60
418;DHT22;49;48.530;9.200;2022-08-11T11:55:22;30.20;8.20
418;DHT22;49;48.530;9.200;2022-08-11T11:57:53;29.80;8.40
418;DHT22;49;48.530;9.200;2022-08-11T12:00:43;29.90;8.00
418;DHT22;49;48.530;9.200;2022-08-11T12:03:28;30.00;8.40
418;DHT22;49;48.530;9.200;2022-08-11T12:05:57;29.30;9.30
418;DHT22;49;48.530;9.200;2022-08-11T12:08:26;29.40;8.60
418;DHT22;49;48.530;9.200;2022-08-11T12:10:56;29.40;8.30
418;DHT22;49;48.530;9.200;2022-08-11T12:13:48;30.10;9.40
418;DHT22;49;48.530;9.200;2022-08-11T12:16:25;30.10;7.40
418;DHT22;49;48.530;9.200;2022-08-11T12:18:54;29.40;9.50
418;DHT22;49;48.530;9.200;2022-08-11T12:21:33;29.10;10.10
418;DHT22;49;48.530;9.200;2022-08-11T12:24:23;29.80;8.00
418;DHT22;49;48.530;9.200;2022-08-11T12:27:08;29.90;8.30
418;DHT22;49;48.530;9.200;2022-08-11T12:29:53;29.40;8.20
418;DHT22;49;48.530;9.200;2022-08-11T12:32:22;29.30;8.50
418;DHT22;49;48.530;9.200;2022-08-11T12:34:58;29.40;8.40
418;DHT22;49;48.530;9.200;2022-08-11T12:37:29;29.90;8.70
418;DHT22;49;48.530;9.200;2022-08-11T12:39:59;29.50;7.80
418;DHT22;49;48.530;9.200;2022-08-11T12:42:46;29.30;8.20
418;DHT22;49;48.530;9.200;2022-08-11T12:45:33;29.20;8.20
418;DHT22;49;48.530;9.200;2022-08-11T12:48:07;29.10;9.80
418;DHT22;49;48.530;9.200;2022-08-11T12:50:56;29.40;10.20
418;DHT22;49;48.530;9.200;2022-08-11T12:53:48;29.00;10.60
418;DHT22;49;48.530;9.200;2022-08-11T12:56:18;28.50;10.00
418;DHT22;49;48.530;9.200;2022-08-11T12:59:04;28.20;11.10
418;DHT22;49;48.530;9.200;2022-08-11T13:01:54;28.10;11.30
418;DHT22;49;48.530;9.200;2022-08-11T13:04:40;28.00;11.60
418;DHT22;49;48.530;9.200;2022-08-11T13:07:21;28.50;9.90
418;DHT22;49;48.530;9.200;2022-08-11T13:09:49;29.30;10.10
418;DHT22;49;48.530;9.200;2022-08-11T13:12:17;28.30;10.00
418;DHT22;49;48.530;9.200;2022-08-11T13:15:02;27.70;11.50
418;DHT22;49;48.530;9.200;2022-08-11T13:17:33;27.90;11.10
418;DHT22;49;48.530;9.200;2022-08-11T13:20:00;28.00;10.60
418;DHT22;49;48.530;9.200;2022-08-11T13:22:29;28.80;11.10
418;DHT22;49;48.530;9.200;2022-08-11T13:24:56;29.00;9.60
418;DHT22;49;48.530;9.200;2022-08-11T13:27:24;29.30;8.70
418;DHT22;49;48.530;9.200;2022-08-11T13:29:52;29.30;9.20
418;DHT22;49;48.530;9.200;2022-08-11T13:32:43;29.00;10.60
418;DHT22;49;48.530;9.200;2022-08-11T13:35:12;28.60;10.80
418;DHT22;49;48.530;9.200;2022-08-11T13:37:42;28.00;11.40
418;DHT22;49;48.530;9.200;2022-08-11T13:40:11;27.80;11.60
418;DHT22;49;48.530;9.200;2022-08-11T13:42:39;28.00;11.90
418;DHT22;49;48.530;9.200;2022-08-11T13:45:07;28.60;9.90
418;DHT22;49;48.530;9.200;2022-08-11T13:47:36;28.20;10.50
418;DHT22;49;48.530;9.200;2022-08-11T13:50:06;28.40;9.80
418;DHT22;49;48.530;9.200;2022-08-11T13:52:34;28.30;10.00
418;DHT22;49;48.530;9.200;2022-08-11T13:55:05;29.10;10.00
418;DHT22;49;48.530;9.200;2022-08-11T13:57:34;29.60;8.70
418;DHT22;49;48.530;9.200;2022-08-11T14:00:02;29.70;8.70
418;DHT22;49;48.530;9.200;2022-08-11T14:02:38;29.40;9.90
418;DHT22;49;48.530;9.200;2022-08-11T14:05:12;29.40;9.80
418;DHT22;49;48.530;9.200;2022-08-11T14:07:47;29.00;10.30
418;DHT22;49;48.530;9.200;2022-08-11T14:10:16;28.90;10.60
418;DHT22;49;48.530;9.200;2022-08-11T14:12:51;28.20;11.10
418;DHT22;49;48.530;9.200;2022-08-11T14:15:41;28.10;11.30
418;DHT22;49;48.530;9.200;2022-08-11T14:18:16;28.40;10.90
418;DHT22;49;48.530;9.200;2022-08-11T14:20:51;28.50;9.40
418;DHT22;49;48.530;9.200;2022-08-11T14:23:40;29.00;10.10
418;DHT22;49;48.530;9.200;2022-08-11T14:26:09;28.80;9.30
418;DHT22;49;48.530;9.200;2022-08-11T14:28:59;28.70;10.10
418;DHT22;49;48.530;9.200;2022-08-11T14:31:29;28.50;10.90
418;DHT22;49;48.530;9.200;2022-08-11T14:34:00;28.60;9.90
418;DHT22;49;48.530;9.200;2022-08-11T14:36:34;28.00;10.70
418;DHT22;49;48.530;9.200;2022-08-11T14:39:06;28.50;10.90
418;DHT22;49;48.530;9.200;2022-08-11T14:41:33;28.60;10.00
418;DHT22;49;48.530;9.200;2022-08-11T14:44:19;28.40;11.00
418;DHT22;49;48.530;9.200;2022-08-11T14:47:04;28.70;9.60
418;DHT22;49;48.530;9.200;2022-08-11T14:49:34;29.30;8.70
418;DHT22;49;48.530;9.200;2022-08-11T14:52:06;29.30;10.30
418;DHT22;49;48.530;9.200;2022-08-11T14:54:34;29.20;9.30
418;DHT22;49;48.530;9.200;2022-08-11T14:57:20;28.20;10.80
418;DHT22;49;48.530;9.200;2022-08-11T14:59:49;28.40;10.90
418;DHT22;49;48.530;9.200;2022-08-11T15:02:17;28.60;10.50
418;DHT22;49;48.530;9.200;2022-08-11T15:05:03;29.20;10.40
418;DHT22;49;48.530;9.200;2022-08-11T15:07:33;29.30;9.30
418;DHT22;49;48.530;9.200;2022-08-11T15:10:02;29.20;10.60
418;DHT22;49;48.530;9.200;2022-08-11T15:12:30;28.70;10.70
418;DHT22;49;48.530;9.200;2022-08-11T15:14:58;28.30;11.30
418;DHT22;49;48.530;9.200;2022-08-11T15:17:44;28.40;10.80
418;DHT22;49;48.530;9.200;2022-08-11T15:20:14;28.60;10.70
418;DHT22;49;48.530;9.200;2022-08-11T15:23:01;29.10;10.00
418;DHT22;49;48.530;9.200;2022-08-11T15:25:50;29.20;9.70
418;DHT22;49;48.530;9.200;2022-08-11T15:28:19;29.10;10.30
418;DHT22;49;48.530;9.200;2022-08-11T15:31:04;29.00;9.30
418;DHT22;49;48.530;9.200;2022-08-11T15:34:02;29.20;8.90
418;DHT22;49;48.530;9.200;2022-08-11T15:36:48;28.50;10.90
418;DHT22;49;48.530;9.200;2022-08-11T15:39:39;28.00;10.70
418;DHT22;49;48.530;9.200;2022-08-11T15:42:28;28.20;10.60
418;DHT22;49;48.530;9.200;2022-08-11T15:45:16;28.70;9.40
418;DHT22;49;48.530;9.200;2022-08-11T15:48:06;29.30;8.90
418;DHT22;49;48.530;9.200;2022-08-11T15:50:38;29.60;9.20
418;DHT22;49;48.530;9.200;2022-08-11T15:53:08;30.00;9.00
418;DHT22;49;48.530;9.200;2022-08-11T15:55:38;30.10;7.50
418;DHT22;49;48.530;9.200;2022-08-11T15:58:07;30.40;7.80
418;DHT22;49;48.530;9.200;2022-08-11T16:00:52;29.70;8.00
418;DHT22;49;48.530;9.200;2022-08-11T16:03:41;28.80;10.10
418;DHT22;49;48.530;9.200;2022-08-11T16:06:27;28.80;10.00
418;DHT22;49;48.530;9.200;2022-08-11T16:08:55;28.70;10.20
418;DHT22;49;48.530;9.200;2022-08-11T16:11:28;29.00;9.30
418;DHT22;49;48.530;9.200;2022-08-11T16:14:05;28.90;10.00
418;DHT22;49;48.530;9.200;2022-08-11T16:16:51;29.30;9.90
418;DHT22;49;48.530;9.200;2022-08-11T16:19:19;29.20;7.90
418;DHT22;49;48.530;9.200;2022-08-11T16:21:49;29.40;8.80
418;DHT22;49;48.530;9.200;2022-08-11T16:24:18;29.40;9.10
418;DHT22;49;48.530;9.200;2022-08-11T16:26:48;29.60;7.50
418;DHT22;49;48.530;9.200;2022-08-11T16:29:18;29.60;7.80
418;DHT22;49;48.530;9.200;2022-08-11T16:31:46;29.90;7.10
418;DHT22;49;48.530;9.200;2022-08-11T16:34:34;30.00;6.80
418;DHT22;49;48.530;9.200;2022-08-11T16:37:21;30.00;6.60
418;DHT22;49;48.530;9.200;2022-08-11T16:40:07;30.30;8.00
418;DHT22;49;48.530;9.200;2022-08-11T16:42:38;29.70;9.30
418;DHT22;49;48.530;9.200;2022-08-11T16:45:22;29.40;8.30
418;DHT22;49;48.530;9.200;2022-08-11T16:48:08;29.00;9.00
418;DHT22;49;48.530;9.200;2022-08-11T16:50:36;28.90;8.80
418;DHT22;49;48.530;9.200;2022-08-11T16:53:05;29.50;7.60
418;DHT22;49;48.530;9.200;2022-08-11T16:55:32;29.90;7.30
418;DHT22;49;48.530;9.200;2022-08-11T16:58:02;30.40;6.60
418;DHT22;49;48.530;9.200;2022-08-11T17:00:47;30.60;5.60
418;DHT22;49;48.530;9.200;2022-08-11T17:03:17;30.70;5.60
418;DHT22;49;48.530;9.200;2022-08-11T17:06:14;30.70;7.40
418;DHT22;49;48.530;9.200;2022-08-11T17:08:59;31.00;5.80
418;DHT22;49;48.530;9.200;2022-08-11T17:11:52;30.90;6.20
418;DHT22;49;48.530;9.200;2022-08-11T17:14:41;31.00;5.80
418;DHT22;49;48.530;9.200;2022-08-11T17:17:12;30.80;6.30
418;DHT22;49;48.530;9.200;2022-08-11T17:19:43;31.00;7.10
418;DHT22;49;48.530;9.200;2022-08-11T17:22:10;30.60;7.40
418;DHT22;49;48.530;9.200;2022-08-11T17:24:55;30.50;6.30
418;DHT22;49;48.530;9.200;2022-08-11T17:27:23;30.10;6.50
418;DHT22;49;48.530;9.200;2022-08-11T17:29:54;30.20;5.70
418;DHT22;49;48.530;9.200;2022-08-11T17:32:24;30.30;5.70
418;DHT22;49;48.530;9.200;2022-08-11T17:35:11;30.60;5.60
418;DHT22;49;48.530;9.200;2022-08-11T17:37:57;30.80;5.70
418;DHT22;49;48.530;9.200;2022-08-11T17:40:26;30.40;5.50
418;DHT22;49;48.530;9.200;2022-08-11T17:42:55;30.70;5.60
418;DHT22;49;48.530;9.200;2022-08-11T17:45:43;31.00;5.80
418;DHT22;49;48.530;9.200;2022-08-11T17:48:30;31.00;5.80
418;DHT22;49;48.530;9.200;2022-08-11T17:51:00;31.00;6.70
418;DHT22;49;48.530;9.200;2022-08-11T17:53:31;31.00;5.80
418;DHT22;49;48.530;9.200;2022-08-11T17:56:19;30.80;5.70
418;DHT22;49;48.530;9.200;2022-08-11T17:59:04;30.60;5.60
418;DHT22;49;48.530;9.200;2022-08-11T18:01:51;30.50;5.50
418;DHT22;49;48.530;9.200;2022-08-11T18:04:18;30.00;5.30
418;DHT22;49;48.530;9.200;2022-08-11T18:06:47;29.80;5.90
418;DHT22;49;48.530;9.200;2022-08-11T18:09:16;29.80;6.50
418;DHT22;49;48.530;9.200;2022-08-11T18:12:04;30.10;5.80
418;DHT22;49;48.530;9.200;2022-08-11T18:14:53;30.10;5.80
418;DHT22;49;48.530;9.200;2022-08-11T18:17:40;30.20;5.70
418;DHT22;49;48.530;9.200;2022-08-11T18:20:25;30.30;5.40
418;DHT22;49;48.530;9.200;2022-08-11T18:23:15;30.40;5.50
418;DHT22;49;48.530;9.200;2022-08-11T18:26:03;30.50;5.50
418;DHT22;49;48.530;9.200;2022-08-11T18:28:54;30.60;5.60
418;DHT22;49;48.530;9.200;2022-08-11T18:31:45;30.50;5.50
418;DHT22;49;48.530;9.200;2022-08-11T18:34:35;30.40;5.50
418;DHT22;49;48.530;9.200;2022-08-11T18:37:24;30.40;6.10
418;DHT22;49;48.530;9.200;2022-08-11T18:40:16;30.30;5.60
418;DHT22;49;48.530;9.200;2022-08-11T18:43:04;30.20;6.60
418;DHT22;49;48.530;9.200;2022-08-11T18:45:52;30.00;6.30
418;DHT22;49;48.530;9.200;2022-08-11T18:48:41;29.90;6.20
418;DHT22;49;48.530;9.200;2022-08-11T18:51:32;29.80;6.30
418;DHT22;49;48.530;9.200;2022-08-11T18:54:18;29.80;6.60
418;DHT22;49;48.530;9.200;2022-08-11T18:57:05;29.70;6.80
418;DHT22;49;48.530;9.200;2022-08-11T18:59:51;29.50;7.40
418;DHT22;49;48.530;9.200;2022-08-11T19:02:38;29.40;7.20
418;DHT22;49;48.530;9.200;2022-08-11T19:05:23;29.20;7.40
418;DHT22;49;48.530;9.200;2022-08-11T19:08:10;29.20;9.10
418;DHT22;49;48.530;9.200;2022-08-11T19:10:56;28.90;8.90